KMDH Weather | Aviation | SIU

Home
Southern Illinois University

CONTACT

SIU.EDU

Aviation - Weather

College of Applied Sciences and Arts

KMDH Weather

NOTICE: Although all weather products are taken from the National Weather Service, this data should be used only as a supplement to a formal weather briefing.

Last Updated: Saturday, May 27th, 2017, 8:33 am
Information on this page is updated every 5 minutes.


METARS

KMDH 271252Z 00000KT 5SM BR OVC034 21/21 A2987 RMK AO2 SLP111 T02110211

KMDH 271152Z 00000KT 4SM BR CLR 20/20 A2987 RMK AO2 LTG DSNT SW SLP110 T02000200

KMDH 271052Z AUTO 00000KT 3SM BR CLR 19/19 A2986 RMK AO2 SLP107 T01940194

KMDH 271047Z AUTO 06005KT 2 1/2SM BR CLR 19/19 A2985 RMK AO2

KMWA 271250Z 00000KT 5SM SCT080 BKN200 22/21 A2988

KMWA 271247Z 00000KT 5SM SC080 BKN200 22/21 A2988

KMWA 271145Z 11006KT 2SM BR OVC200 20/19 A2987

KMWA 271115Z AUTO 00000KT 3SM BR SCT030 20/20 A2988 RMK AO2 LTG DSNT SW

KMWA 271055Z AUTO 02003KT 1 3/4SM BR BKN030 BKN035 20/20 A2986 RMK AO2

KMWA 271035Z AUTO 00000KT 4SM BR SCT025 OVC033 20/20 A2987 RMK AO2 LTG DSNT SW

KCGI 271319Z 03004KT 5SM BR BKN015 23/21 A2985 RMK AO2 T02330211

KCGI 271253Z 09005KT 4SM BR FEW015 23/21 A2985 RMK AO2 RAB1154E04 SLP105 P0000

KCGI 271224Z 11005KT 4SM BR BKN015 BKN021 BKN045 22/21 A2985 RMK AO2 RAB1154E04

KCGI 271153Z 17006KT 3SM BR SCT018 BKN038 OVC110 21/20 A2985 RMK AO2 LTG DSNT

KCGI 271148Z 15008KT 4SM BR SCT018 BKN036 OVC110 21/20 A2985 RMK AO2 LTG DSNT N

KCGI 271124Z AUTO 35005KT 6SM BR BKN021 BKN044 BKN120 22/20 A2986 RMK AO2 LTG

KCGI 271108Z AUTO VRB04KT 5SM -TSRA BR FEW044 SCT095 SCT120 21/19 A2984 RMK AO2

KCGI 271053Z AUTO 16006KT 4SM VCTS -RA BR FEW095 FEW120 21/19 A2983 RMK AO2 LTG

KSAR 271315Z AUTO 10004KT 10SM SCT055 22/20 A2988 RMK AO2 T02170199

KSAR 271255Z AUTO 07003KT 10SM SCT044 BKN055 21/20 A2989 RMK AO2 LTG DSNT SE

KSAR 271235Z AUTO 00000KT 7SM CLR 20/20 A2988 RMK AO2 T02000195

KSAR 271215Z AUTO 00000KT 5SM BR CLR 19/19 A2987 RMK AO2 T01920190

KSAR 271155Z AUTO 00000KT 4SM BR CLR 19/19 A2987 RMK AO2 T01880185 10211 20183

KSAR 271135Z AUTO 00000KT 4SM BR CLR 19/18 A2988 RMK AO2 T01850183

KSAR 271115Z AUTO 00000KT 2 1/2SM BR CLR 19/18 A2987 RMK AO2 LTG DSNT S

KSAR 271055Z AUTO 00000KT 4SM BR SCT041 19/18 A2987 RMK AO2 T01860183

KSAR 271035Z AUTO 00000KT 5SM BR SCT041 BKN048 19/19 A2987 RMK AO2 LTG DSNT S

KFAM 271324Z AUTO 05004KT 9SM SCT003 BKN012 22/21 A2989 RMK AO2

KFAM 271256Z AUTO 05003KT 6SM BR OVC003 21/19 A2990 RMK AO2 SLP118 T02060194

KFAM 271223Z AUTO 00000KT 4SM BR BKN005 BKN018 OVC023 19/19 A2989 RMK AO2

KFAM 271220Z AUTO 17003KT 4SM BR SCT005 BKN018 OVC023 19/19 A2989 RMK AO2

KFAM 271156Z AUTO 04003KT 3SM BR FEW010 BKN021 BKN060 19/18 A2988 RMK AO2 SLP112

KFAM 271149Z AUTO 00000KT 2 1/2SM BR BKN021 BKN060 19/18 A2988 RMK AO2

KFAM 271108Z AUTO 00000KT 3SM BR FEW055 19/19 A2986 RMK AO2

KFAM 271056Z AUTO 36003KT 2SM BR SCT055 18/18 A2986 RMK AO2 SLP102 T01830183

KFAM 271045Z AUTO 00000KT 2SM BR BKN055 18/18 A2986 RMK AO2

KMVN 271256Z AUTO 00000KT 8SM 21/20 A2987 RMK AO2 SLP112 T02110200 $

KMVN 271215Z AUTO 00000KT 4SM BR 19/19 A2987 RMK AO2 $

KMVN 271156Z AUTO 00000KT 2SM BR 19/19 A2987 RMK AO2 SLP112 T01890189 10200

KMVN 271132Z AUTO 00000KT 2 1/2SM BR 18/18 A2988 RMK AO2 $

KMVN 271116Z AUTO 00000KT 1 1/2SM BR 18/18 A2987 RMK AO2 $

KMVN 271109Z AUTO 00000KT 1SM BR 18/18 A2987 RMK AO2 $

KMVN 271056Z AUTO 00000KT 1/2SM FG 18/18 A2987 RMK AO2 VIS M1/4V3 SLP112

KMVN 271051Z AUTO 00000KT 1/4SM FG 18/18 A2987 RMK AO2 $

KMVN 271043Z AUTO 00000KT 1/2SM FG 18/18 A2987 RMK AO2 $

KHSB 271315Z AUTO 00000KT 4SM BR CLR 22/21 A2988 RMK AO2 T02160211

KCIR 271315Z AUTO 36004KT 7SM CLR 23/22 A2985 RMK AO2 LTG DSNT SE AND S

KPAH 271312Z 00000KT 7SM FEW014 FEW028 23/21 A2984 RMK AO2 LTG DSNT E AND SE

KPOF 271322Z AUTO 20010KT 10SM SCT016 22/19 A2986 RMK AO2 T02220194 TSNO

KFAM 271324Z AUTO 05004KT 9SM SCT003 BKN012 22/21 A2989 RMK AO2

KBLV 271258Z AUTO 07004KT 10SM CLR 22/19 A2988 RMK AO2 SLP118 T02200194

KSUS 271254Z 05004KT 10SM CLR 22/20 A2986 RMK AO2 SLP103 T02220200

KCPS 271253Z 05005KT 10SM CLR 23/19 A2986 RMK AO2 SLP109 T02280189

KSTL 271251Z 02005KT 10SM FEW150 SCT250 23/18 A2987 RMK AO2 SLP104 ACC DSNT S

KTBN 271323Z AUTO 09006KT 5SM BR OVC004 21/20 A2987 RMK AO2 VIS 2 RWY32 SLP109

KVIH 271328Z AUTO 10006KT 10SM SCT003 BKN055 21/20 A2987 RMK AO2 T02060200

KENL 271315Z AUTO 05005KT 10SM CLR 23/20 A2987 RMK AO2 T02250200

KMTO 271320Z AUTO 01006KT 5SM BR OVC004 18/18 A2988 RMK AO2 T01780178

KFWC 271315Z AUTO 00000KT 10SM CLR 22/20 A2986 RMK AO1 T02150200

KCUL 271315Z AUTO 00000KT 4SM BR CLR 22/21 A2987 RMK AO2 T02160209

KEVV 271254Z 21003KT 4SM BR SCT020 22/20 A2988 RMK AO2 SLP113 T02220200

KOWB 271256Z 14003KT 10SM CLR 22/20 A2989 RMK AO2 SLP127 T02220200

KEHR 271256Z AUTO 00000KT 7SM CLR 21/20 A2987 RMK AO2 SLP121 T02110200

KCEY 271315Z AUTO 19012G23KT 9SM BKN018 BKN035 OVC095 22/22 A2987 RMK AO1

KHOP 271258Z AUTO 21003KT 10SM FEW023 22/19 A2992 RMK AO2 SLP129 T02230191

KMKL 271253Z 20008KT 10SM OVC080 23/21 A2992 RMK AO2 LTG DSNT N AND NW SLP126

KDYR 271325Z AUTO VCTS RMK AO2 LTG DSNT NE-SE TSE23B25 PWINO FZRANO $

KARG 271315Z AUTO 29005KT 10SM CLR 22/19 A2988 RMK AO1

KJBR 271327Z AUTO 21012G18KT 10SM BKN010 25/23 A2987 RMK AO2 T02500228

KUNO 271253Z AUTO 24004KT 10SM SCT080 BKN095 21/18 A2989 RMK AO2 SLP110

KALN 271250Z VRB03KT 10SM FEW250 20/18 A2988

KALN 271250Z VRB03KT 10SM FEW250 20/18 A2988

KCOU 271254Z 08005KT 10SM CLR 22/20 A2987 RMK AO2 SLP107 T02170200

KSPI 271252Z 04009KT 2SM BR OVC003 17/17 A2990 RMK AO2 SLP120 T01670167

KAJG 271315Z AUTO 00000KT 7SM SCT006 22/19 A2987 RMK AO2 T02150191

KM30 271315Z AUTO 00000KT 7SM SCT035 SCT044 SCT050 23/22 A2986 RMK AO2 LTG DSNT

KDEC 271254Z 03006KT 7SM OVC007 18/16 A2989 RMK AO2 SLP118 T01780161

KIJX 271315Z AUTO 03007KT 2 1/2SM BR OVC004 16/16 A2990 RMK AO2 T01580156


TAFS

KEVV 271120Z 2712/2812 VRB06KT P6SM SCT025 BKN050

        TEMPO 2712/2715 4SM BR BKN025

        FM271500 23007KT P6SM VCTS SCT025CB BKN035

        FM280200 VRB05KT 4SM -TSRA OVC025CB

        FM280800 VRB03KT P6SM SCT020 BKN040

KCGI 271237Z 2713/2812 VRB05KT 4SM BR BKN015

        TEMPO 2713/2715 P6SM NSW SCT015 BKN025

        FM271500 19008KT P6SM VCTS SCT025CB BKN035

        FM280000 19007KT 4SM -TSRA BKN025CB

        FM280600 19005KT P6SM SCT020 BKN040

KPAH 271222Z 2712/2812 VRB05KT 4SM BR SCT025 BKN060

        TEMPO 2712/2713 -TSRA BKN025CB

        FM271300 19008KT P6SM VCTS SCT025CB BKN035

        FM280100 19007KT 4SM -TSRA BKN025CB

        FM280700 19005KT P6SM SCT020 BKN040

KSPI 271211Z 2712/2812 02007KT 2SM BR OVC003

        TEMPO 2712/2714 1/2SM FG VV002

        FM271400 07008KT 6SM BR SCT015

        FM271700 09008KT P6SM SCT030

        FM280200 11007KT 4SM SHRA BR VCTS SCT025CB OVC050

        FM280500 21008KT 5SM BR VCSH BKN025

KSTL 271140Z 2712/2818 02004KT P6SM SCT150

        FM271600 08004KT P6SM SCT250

        FM272300 14007KT P6SM VCTS BKN045CB

        TEMPO 2800/2802 VRB40KT 2SM TSRA OVC035CB

        FM280300 18007KT P6SM BKN150

        FM280700 23006KT P6SM BKN150

        FM281100 24006KT P6SM BKN020

KDEC 271137Z 2712/2812 01006KT 4SM BR SCT003 OVC007

        TEMPO 2712/2714 3/4SM BR VV002

        FM271400 07006KT 6SM BR SCT015

        FM271700 09007KT P6SM SCT030

        FM280300 13007KT 4SM SHRA BR VCTS SCT025CB OVC050

        FM280600 19008KT 5SM BR VCSH BKN025

KOWB 271120Z 2712/2812 VRB06KT P6SM SCT025 BKN050

        TEMPO 2712/2715 BKN025

        FM271500 23007KT P6SM VCTS SCT025CB BKN035

        FM280300 VRB05KT 4SM -TSRA OVC025CB

        FM280900 VRB03KT P6SM SCT020 BKN040

KSUS 271140Z 2712/2812 VRB04KT 3SM BR SCT150

        FM271300 08004KT P6SM SCT250

        FM272300 14007KT P6SM VCTS BKN045CB

        TEMPO 2800/2802 VRB40KT 2SM TSRA OVC035CB

        FM280300 18007KT P6SM BKN150

TAF KBLV 270801Z 2708/2814 24006KT 9999 SCT035 QNH2985INS

        BECMG 2712/2713 18006KT 9999 BKN050 QNH2975INS WND 16012KT AFT 2723

        TEMPO 2800/2804 27030G45KT 1600 +TSRAGR BKN020 OVC050CB

        BECMG 2809/2810 24012G18KT 9999 SCT050 QNH2980INS WND 27012G18KT AFT 2813 TX29/2720Z TN18/2708Z


Winds Aloft

VALID 271200Z FOR USE 0800-1500Z. TEMPS NEG ABV 24000

FT 3000 6000 9000 12000 18000 24000 30000 34000 39000
CGI99002916+182730+112743+042659-112560-23245337245347235359
EVV31152818+142723+112823+042643-122641-24264639265549277659
SPI34103411+142817+082718+012833-132741-26273739273849264760
STL33082811+142513+102612+022729-122645-25265639255348255458



Pilot Reports

CGI UA /OV FAM/TM 1140/FL380/TP B737/WV 311023KT/TB CONT LGT TURB/RM AWC-WEB/
LOZ UA /OV LWV150045/TM 1200/FL370/TP B737/TB LGT
BWG UA /OV BWG316047/TM 1207/FL380/TP B738/TB SMTH/RM AWC-WEB/
MWA UA /OV MWA100040/TM 1215/FL240/TP PC12/TB MOD CAT/RM ZKC
EVV UA /OV PXV/TM 1244/FL350/TP B757/TB LGT
EVV UA /OV SAM270020/TM 1245/FL370/TP B737/TB MOD CHOP
SPI UA /OV SPI/TM 1250/FLDURGC/TP PA32/SK OVC011-TOP018
BNA UA /OV BNA280017/TM 1255/FLDURD/TP PA46/SK BKN030 CLR BLO



Area Forecast

000

FAUS43 KKCI 271145 AAA

FA3W

CHIC FA 271145 AMD

SYNOPSIS AND VFR CLDS/WX

SYNOPSIS VALID UNTIL 280400

CLDS/WX VALID UNTIL 272200...OTLK VALID 272200-280400

ND SD NE KS MN IA MO WI LM LS MI LH IL IN KY

.

SEE AIRMET SIERRA FOR IFR CONDS AND MTN OBSCN.

TS IMPLY SEV OR GTR TURB SEV ICE LLWS AND IFR CONDS.

NON MSL HGTS DENOTED BY AGL OR CIG.

.

SYNOPSIS...UPR LVL TROF EXTDG FM THE NRN PLAINS TO UT WL ADVANCE

SLOLY EWD. WK SFC LOW IS OVR WRN KS WITH WRMFNT TO NERN OK BECMG

STNR SRN MO-WRN OH. CDFNT EXTDS FM THE LOW INTO CO. WK CDFNT

EXTDS FM WRN LS TO NW MO. BY 00Z WK LOW WL BE OVR NERN KS WITH

WRMFNT THRU CNTRL MO BECMG STNR TO ERN KY. CDFNT WL EXTD FM THE

LOW TO WRN OK-NRN NM. WK CDFNT WL EXTD FM ERN LS TO NRN MO.

.

ND

WRN...SCT CI. BECMG 1518 SCT-BKN100 TOPS 130. OTLK...VFR.

ERN...BKN CI. BECMG 1821 SCT-BKN080-100 TOPS 130. OTLK...VFR.

.

SD

NWRN...BKN CI. BECMG 1518 SCT-BKN100 TOPS 130. OTLK...VFR.

SWRN...BKN060 BKN100 TOPS 150. ISOL -SHRA. BECMG 1518 SCT100.

OTLK...VFR.

SERN...BKN060 BKN100 TOPS 160. WDLY SCT -SHRA. 21Z SCT070

BKN-SCT120. OTLK...VFR.

NERN...BKN CI. 20Z SCT-BKN100 TOPS 130. OTLK...VFR.

.

NE

PNHDL...BKN050-060 BKN120 TOPS 150. ISOL -SHRA. 18Z SCT070

SCT-BKN120. OTLK...VFR.

RMNDR WRN HLF-CNTRL...BKN040-050 OVC100 TOPS FL180. OCNL VIS

4-5SM -SHRA BR. BECMG 1518 BKN050-060 BKN100. ISOL -SHRA. 20Z

BKN060. OTLK...VFR.

ERN...BKN120 TOPS FL180. 15Z BKN050 OVC100. SCT -SHRA.

OTLK...VFR.

.

KS...UPDT

NWRN-N CNTRL...BKN060-070 BKN120 TOPS FL180. SCT -SHRA/WDLY SCT

-TSRA. CB TOPS FL420. 15Z BKN040-050 TOPS 080. 20Z BKN-SCT060.

OTLK...VFR.

SWRN...SCT-BKN050 TOPS 070. OTLK...VFR.

NERN...SCT-BKN050 BKN100 TOPS FL180. SCT -TSRA. CB TOPS FL420.

BECMG 1821 BKN040 BKN100 TOPS 140. WDLY SCT -SHRA/-TSRA.

OTLK...MVFR CIG.

SERN...SCT040. BECMG 2022 SCT-BKN040 TOPS 100. SCT -TSRA..POSS

SEV. CB TOPS FL450. OTLK...VFR TSRA..03Z VFR.

.

MN

NWRN...SCT-BKN CI. 18Z SCT CI. OTLK...VFR.

NERN...SCT CI. TIL 13Z OCNL VIS 3-5SM BR. OTLK...VFR.

SRN...SCT-BKN CI. BECMG 1618 BKN100 TOPS 140. OTLK...VFR.

.

IA

NWRN...BKN CI. 16Z BKN100 TOPS 150. 20Z BKN060. OTLK...VFR.

NERN...SCT010-020. OCNL VIS 3SM BR. 13Z SCT040. OTLK...VFR.

SWRN...BKN CI. 19Z BKN050 BKN100 TOPS 150. WDLY SCT -SHRA/ISOL

-TSRA. CB TOPS FL370. OTLK...VFR.

SERN...SCT015. OCNL VIS 3SM BR. 13Z SCT-BKN CI. 16Z SCT040 BKN

CI. OTLK...VFR TSRA.

.

MO...UDPT

NWRN...SCT-BKN CI. 16Z SCT040 BKN CI. BECMG 1821 SCT-BKN050

BKN100 TOPS FL180. SCT -TSRA..POSS SEV. CB TOPS FL450.

OTLK...MVFR CIG TSRA..02Z MVFR CIG.

NERN...SCT CI. TIL 13Z OCNL VIS 3SM BR. 16Z SCT050 SCT CI.

OTLK...VFR TSRA.

SWRN-CNTRL...SCT-BKN030 TOPS 060. TIL 14Z OCNL VIS 3-5SM BR. 17Z

BKN040. OTLK...VFR TSRA.

SERN...BKN050 TOPS 100. WDLY SCT -TSRA..POSS SEV. CB TOPS FL450.

17Z BKN050. OTLK...VFR.

.

WI

WRN...SKC. TIL 13Z OCNL VIS 3SM BR. 15Z SCT CI. OTLK...VFR.

ERN...SCT015 SCT080. OCNL VIS 3SM BR. 14Z SCT040. OTLK...VFR.

.

LS UPR MI

WRN SXNS...SCT100. 15Z SCT CI. OCNL SCT050. OTLK...VFR.

ERN SXNS...BKN090 TOPS 140. 17Z SCT090. OTLK...VFR.

.

LM LWR MI LH

NRN SXNS...SCT-BKN090 TOPS 140. OCNL VIS 3-5SM BR. 14Z SCT090.

18Z SCT050. OTLK...VFR.

SRN SXNS...BKN020-030 TOPS 050. 17Z BKN040 TOPS 070. OTLK...VFR.

.

IL...UPDT

NRN HLF...BKN015-025 TOPS 050. OCNL VIS 3-5SM BR. 16Z BKN-SCT025.

18Z SCT040. OTLK...VFR.

SRN HLF...SCT030-040. TIL 14Z OCNL VIS 3SM BR. 15Z SCT040-050.

OTLK...VFR..02Z VFR TSRA.

.

IN

NRN...OVC015-020 TOPS 050. OCNL VIS 3-5SM BR. 16Z BKN-SCT025. 18Z

SCT-BKN040 TOPS 070. OTLK...VFR.

SRN...BKN030-040 TOPS 060. 16Z SCT-BKN040. OTLK...VFR.

.

KY

WRN...BKN050-060 TOPS 100. BECMG 1518 BKN050 BKN100 TOPS 140.

SCT -TSRA..POSS SEV. CB TOPS FL450. OTLK...VFR TSRA..03Z VFR.

ERN...BKN060 TOPS 100. 18Z BKN050. WDLY SCT -TSRA. CB TOPS FL400.

OTLK...VFR TSRA..03Z VFR.

....



Significant Weather

WAUS44 KKCI 270845 DFWT WA 270845 AIRMET TANGO UPDT 1 FOR TURB AND LLWS VALID UNTIL 271500 AIRMET TURB...AR TN MS AL MO IL IN KY FROM 30WSW TTH TO CVG TO 50ESE LOZ TO GQO TO 20ESE MSL TO 30WNW LIT TO 20N RZC TO 40W COU TO 30WSW TTH MOD TURB BTN FL270 AND FL400. CONDS CONTG BYD 15Z THRU 21Z. LLWS POTENTIAL...OK TX BOUNDED BY 20NE END-40W TTT-50S LBB-60S LBL-20NE END LLWS EXP. CONDS ENDG 12-15Z.
WAUS43 KKCI 270845 CHIT WA 270845 AIRMET TANGO UPDT 1 FOR TURB VALID UNTIL 271500 AIRMET TURB...MO IL IN KY AR TN MS AL FROM 30WSW TTH TO CVG TO 50ESE LOZ TO GQO TO 20ESE MSL TO 30WNW LIT TO 20N RZC TO 40W COU TO 30WSW TTH MOD TURB BTN FL270 AND FL400. CONDS CONTG BYD 15Z THRU 21Z. OTLK VALID 1500-2100Z...TURB ND SD NE KS MN IA MO WI LM LS MI LH IL IN KY BOUNDED BY 30N INL-YQT-SSM-YVV-30SE ECK-FWA-CVG-20SSE MCI-30SW SLN-20N LBF-50SSW PIR-60SSW YWG-30N INL MOD TURB BTN FL240 AND FL400. CONDS CONTG THRU 21Z.
WAUS43 KKCI 271130 AAA CHIS WA 271130 AMD AIRMET SIERRA UPDT 2 FOR IFR VALID UNTIL 271500 AIRMET IFR...MO IL IN...UPDT FROM 20SSE IRK TO 20S AXC TO 20SSW IND TO PXV TO 40S FAM TO 60WNW ARG TO 30W SGF TO 40SE MCI TO 20SSE IRK CIG BLW 010/VIS BLW 3SM BR/FG. CONDS ENDG 13-15Z. ...NEW AIRMET...
WSUS32 KKCI 271155 SIGC CONVECTIVE SIGMET 32C VALID UNTIL 1355Z MO IA KS NE FROM 50WSW OVR-40ENE PWE-50W BUM-30SSE SLN-50SSE OBH-50WSW OVR AREA TS MOV FROM 26020KT. TOPS ABV FL450. OUTLOOK VALID 271355-271755 AREA 1...FROM FSD-30S MCW-UIN-50NNE PXV-30SE MSL-50N SQS-30WNW ELD-60NW TXK-OSW-30NE GCK-50N GLD-60W ANW-FSD REF WW 274. WST ISSUANCES EXPD. REFER TO MOST RECENT ACUS01 KWNS FROM STORM PREDICTION CENTER FOR SYNOPSIS AND METEOROLOGICAL DETAILS. AREA 2...FROM 50E ONL-30N DSM-UIN-50NNE PXV-30SE MSL-30ENE SQS-LIT-30WSW RZC-60SE ICT-HLC-40WNW OBH-50E ONL WST ISSUANCES EXPD. REFER TO MOST RECENT ACUS01 KWNS FROM STORM PREDICTION CENTER FOR SYNOPSIS AND METEOROLOGICAL DETAILS. AREA 3...FROM 80E DDY-40NNW BFF-BFF-30N DEN-DEN-50E HBU-30WSW HBU-JNC-30NW CHE-60N CHE-40SSE DDY-80E DDY WST ISSUANCES EXPD. REFER TO MOST RECENT ACUS01 KWNS FROM STORM PREDICTION CENTER FOR SYNOPSIS AND METEOROLOGICAL DETAILS.
WAUS43 KKCI 271249 AAB CHIS WA 271249 AMD AIRMET SIERRA UPDT 3 FOR IFR VALID UNTIL 271500 AIRMET IFR...MO IL IN KY...UPDT FROM 50NW PXV TO PXV TO 40ESE FAM TO 60ESE SGF TO 30W SGF TO 20ESE BUM TO 20SSE COU TO 30SSW STL TO 50NW PXV CIG BLW 010/VIS BLW 3SM BR/FG. CONDS ENDG BY 15Z.
WSUS32 KKCI 271155 SIGC CONVECTIVE SIGMET 33C VALID UNTIL 1355Z TN KY IL MO AR FROM FAM-30SSW PXV-30E MEM-50NNE LIT-FAM AREA SEV TS MOV FROM 27030KT. TOPS ABV FL450. HAIL TO 1 IN...WIND GUSTS TO 50KT POSS. OUTLOOK VALID 271355-271755 AREA 1...FROM FSD-30S MCW-UIN-50NNE PXV-30SE MSL-50N SQS-30WNW ELD-60NW TXK-OSW-30NE GCK-50N GLD-60W ANW-FSD REF WW 274. WST ISSUANCES EXPD. REFER TO MOST RECENT ACUS01 KWNS FROM STORM PREDICTION CENTER FOR SYNOPSIS AND METEOROLOGICAL DETAILS. AREA 2...FROM 50E ONL-30N DSM-UIN-50NNE PXV-30SE MSL-30ENE SQS-LIT-30WSW RZC-60SE ICT-HLC-40WNW OBH-50E ONL WST ISSUANCES EXPD. REFER TO MOST RECENT ACUS01 KWNS FROM STORM PREDICTION CENTER FOR SYNOPSIS AND METEOROLOGICAL DETAILS. AREA 3...FROM 80E DDY-40NNW BFF-BFF-30N DEN-DEN-50E HBU-30WSW HBU-JNC-30NW CHE-60N CHE-40SSE DDY-80E DDY WST ISSUANCES EXPD. REFER TO MOST RECENT ACUS01 KWNS FROM STORM PREDICTION CENTER FOR SYNOPSIS AND METEOROLOGICAL DETAILS.
WAUS43 KKCI 271249 AAB CHIS WA 271249 AMD AIRMET SIERRA UPDT 3 FOR IFR VALID UNTIL 271500 AIRMET IFR...SD NE KS...UPDT FROM 80SE RAP TO 40SSW LBF TO 20WSW HLC TO 40S GLD TO GLD TO 40NNW BFF TO 80SE RAP CIG BLW 010/VIS BLW 3SM BR. CONDS ENDG 15-18Z.
WSUS32 KKCI 271306 CCA SIGC CONVECTIVE SIGMET 35C VALID UNTIL 1455Z MO IA KS NE FROM 20W OVR-30SW MCI LINE TS 50 NM WIDE MOV FROM 26035KT. TOPS ABV FL450. OUTLOOK VALID 271455-271855 AREA 1...FROM 30S MCW-30SE IOW-30SE UIN-50NNE PXV-30SE MSL-50N SQS-30WNW ELD-60NW TXK-OSW-30NE GCK-30W HLC-OBH-30S MCW REF WW 274. WST ISSUANCES EXPD. REFER TO MOST RECENT ACUS01 KWNS FROM STORM PREDICTION CENTER FOR SYNOPSIS AND METEOROLOGICAL DETAILS. AREA 2...FROM 80E DDY-40NNW BFF-BFF-30N DEN-DEN-50E HBU-30WSW HBU-JNC-30NW CHE-60N CHE-40SSE DDY-80E DDY WST ISSUANCES EXPD. REFER TO MOST RECENT ACUS01 KWNS FROM STORM PREDICTION CENTER FOR SYNOPSIS AND METEOROLOGICAL DETAILS.